Time;durP1;ratioP1;P1;durP2;ratioP2;P2;SDS_P1;SDS_P2;PMS_P1;PMS_P2;Temp;Humidity;BMP_temperature;BMP_pressure;BME280_temperature;BME280_humidity;BME280_pressure;Samples;Min_cycle;Max_cycle;Signal;HPM_P1;HPM_P2
2022/03/29 00:01:42;;;;;;;60.42;36.25;;;9.10;97.60;;;;;;5015699;28;20030;-75
2022/03/29 00:04:08;;;;;;;53.60;32.45;;;9.10;97.30;;;;;;5015228;28;20487;-75
2022/03/29 00:06:34;;;;;;;48.95;28.00;;;9.00;97.80;;;;;;5015282;28;20396;-75
2022/03/29 00:09:00;;;;;;;51.65;32.90;;;9.00;98.30;;;;;;5015361;28;20109;-76
2022/03/29 00:11:26;;;;;;;56.63;34.05;;;8.90;98.70;;;;;;5015539;28;20034;-76
2022/03/29 00:13:54;;;;;;;46.60;31.67;;;9.10;98.70;;;;;;5015175;28;20030;-75
2022/03/29 00:16:20;;;;;;;47.65;28.80;;;9.00;98.50;;;;;;5030363;28;20033;-67
2022/03/29 00:18:49;;;;;;;53.28;29.67;;;9.00;98.30;;;;;;5015174;28;20029;-74
2022/03/29 00:21:15;;;;;;;57.83;33.92;;;9.00;98.50;;;;;;5013982;28;20037;-74
2022/03/29 00:23:40;;;;;;;52.15;30.42;;;8.90;98.00;;;;;;5014557;28;20479;-74
2022/03/29 00:26:06;;;;;;;49.38;27.65;;;8.90;98.40;;;;;;5015186;28;20060;-68
2022/03/29 00:28:32;;;;;;;37.38;22.17;;;8.90;98.60;;;;;;5015212;28;20480;-76
2022/03/29 00:30:58;;;;;;;38.05;21.05;;;8.90;98.90;;;;;;5014989;28;20034;-76
2022/03/29 00:33:24;;;;;;;36.13;21.77;;;8.80;99.40;;;;;;5015044;28;20036;-69
2022/03/29 00:35:51;;;;;;;37.05;22.13;;;8.70;99.80;;;;;;5014703;28;20110;-75
2022/03/29 00:38:24;;;;;;;36.42;22.10;;;8.70;99.90;;;;;;5015143;28;20115;-71
2022/03/29 00:40:50;;;;;;;41.88;24.27;;;8.70;99.90;;;;;;5014996;28;20113;-75
2022/03/29 00:43:18;;;;;;;43.22;24.88;;;8.70;99.80;;;;;;5014960;28;20109;-74
2022/03/29 00:45:47;;;;;;;53.70;28.50;;;8.70;99.30;;;;;;5014316;28;20045;-74
2022/03/29 00:48:13;;;;;;;48.75;30.10;;;8.60;99.60;;;;;;5014850;28;20026;-73
2022/03/29 00:50:43;;;;;;;42.28;27.30;;;8.50;99.90;;;;;;5014523;28;20041;-74
2022/03/29 00:53:10;;;;;;;52.38;27.92;;;8.30;99.90;;;;;;5029780;28;20661;-75
2022/03/29 00:55:37;;;;;;;46.95;29.38;;;8.20;99.90;;;;;;5014311;28;20034;-74
2022/03/29 00:58:06;;;;;;;58.83;33.30;;;8.10;99.90;;;;;;5014351;28;20101;-75
2022/03/29 01:00:34;;;;;;;54.15;31.85;;;8.00;99.90;;;;;;5029382;28;20041;-72
2022/03/29 01:03:03;;;;;;;51.10;30.70;;;8.00;99.90;;;;;;5014516;28;20029;-75
2022/03/29 01:05:29;;;;;;;45.90;30.83;;;8.00;99.90;;;;;;5014268;28;20052;-74
2022/03/29 01:07:59;;;;;;;58.53;34.95;;;8.00;99.90;;;;;;5014266;28;20022;-74
2022/03/29 01:10:25;;;;;;;52.05;30.48;;;8.00;99.90;;;;;;5014357;28;20125;-74
2022/03/29 01:12:55;;;;;;;53.50;31.08;;;8.00;99.90;;;;;;5014379;28;20018;-75
2022/03/29 01:15:27;;;;;;;56.72;30.48;;;8.00;99.90;;;;;;5014078;28;20500;-74
2022/03/29 01:17:54;;;;;;;50.25;31.00;;;8.00;99.90;;;;;;5029243;28;20038;-74
2022/03/29 01:20:27;;;;;;;49.60;27.60;;;8.00;99.90;;;;;;5013768;28;20855;-73
2022/03/29 01:22:55;;;;;;;47.58;29.77;;;8.00;99.90;;;;;;5012778;28;20037;-74
2022/03/29 01:25:26;;;;;;;47.95;29.08;;;8.00;99.90;;;;;;5029311;28;20124;-75
2022/03/29 01:27:56;;;;;;;47.85;29.15;;;7.90;99.90;;;;;;5013871;28;20030;-75
2022/03/29 01:30:24;;;;;;;44.00;25.73;;;7.90;99.90;;;;;;5015270;28;20034;-72
2022/03/29 01:32:56;;;;;;;51.13;28.80;;;7.90;99.90;;;;;;5028787;28;20026;-74
2022/03/29 01:35:30;;;;;;;52.03;29.48;;;7.90;99.90;;;;;;5012665;28;20483;-73
2022/03/29 01:38:40;;;;;;;47.80;29.25;;;7.80;99.90;;;;;;5028320;28;20042;-75
2022/03/29 01:41:05;;;;;;;43.47;26.35;;;7.60;99.90;;;;;;5013903;28;20030;-74
2022/03/29 01:43:34;;;;;;;43.65;26.25;;;7.50;99.90;;;;;;5014159;28;20037;-75
2022/03/29 01:46:00;;;;;;;47.83;28.70;;;7.30;99.90;;;;;;5013302;28;20042;-75
2022/03/29 01:48:27;;;;;;;58.85;32.90;;;7.30;99.90;;;;;;5013711;28;20105;-74
2022/03/29 01:50:53;;;;;;;50.55;32.60;;;7.20;99.90;;;;;;5013641;28;20042;-74
2022/03/29 01:53:23;;;;;;;51.67;31.92;;;7.20;99.90;;;;;;5013552;28;20033;-75
2022/03/29 01:55:53;;;;;;;56.00;31.73;;;7.20;99.90;;;;;;5013408;28;20026;-73
2022/03/29 01:58:19;;;;;;;63.03;32.60;;;7.10;99.90;;;;;;5013499;28;20030;-73
2022/03/29 02:00:44;;;;;;;54.15;32.83;;;7.10;99.90;;;;;;5028552;28;20025;-74
2022/03/29 02:03:10;;;;;;;54.28;32.08;;;7.20;99.90;;;;;;5013899;28;20494;-74
2022/03/29 02:05:37;;;;;;;49.78;30.40;;;7.20;99.90;;;;;;5013435;28;20022;-72
2022/03/29 02:08:03;;;;;;;51.05;31.40;;;7.20;99.90;;;;;;5013010;28;20072;-70
2022/03/29 02:10:30;;;;;;;55.17;34.90;;;7.30;99.90;;;;;;5013348;28;20052;-75
2022/03/29 02:12:56;;;;;;;52.63;30.42;;;7.40;99.90;;;;;;5013238;28;20033;-74
2022/03/29 02:15:22;;;;;;;57.03;31.35;;;7.30;99.90;;;;;;5013124;28;20040;-70
2022/03/29 02:17:51;;;;;;;52.10;30.83;;;7.30;99.90;;;;;;5013135;28;20104;-74
2022/03/29 02:20:19;;;;;;;55.78;31.85;;;7.30;99.90;;;;;;5012846;28;20032;-74
2022/03/29 02:22:45;;;;;;;57.88;33.17;;;7.30;99.90;;;;;;5012964;28;20116;-73
2022/03/29 02:25:11;;;;;;;54.97;33.58;;;7.30;99.90;;;;;;5013269;28;20029;-73
2022/03/29 02:27:39;;;;;;;48.35;32.50;;;7.30;99.90;;;;;;5013211;28;20033;-75
2022/03/29 02:30:07;;;;;;;50.13;30.90;;;7.30;99.90;;;;;;5012775;28;20125;-75
2022/03/29 02:32:34;;;;;;;57.33;32.35;;;7.30;99.90;;;;;;5013172;28;20056;-75
2022/03/29 02:34:59;;;;;;;50.03;31.23;;;7.30;99.90;;;;;;5012971;28;20033;-75
2022/03/29 02:37:25;;;;;;;55.58;32.15;;;7.30;99.90;;;;;;5012839;28;20030;-74
2022/03/29 02:39:51;;;;;;;59.35;32.97;;;7.30;99.90;;;;;;5011352;28;20128;-76
2022/03/29 02:42:17;;;;;;;48.58;30.83;;;7.30;99.90;;;;;;5013027;28;20037;-74
2022/03/29 02:44:43;;;;;;;56.45;29.67;;;7.20;99.90;;;;;;5012867;28;20053;-74
2022/03/29 02:47:12;;;;;;;50.25;30.42;;;7.20;99.90;;;;;;5012363;28;20472;-74
2022/03/29 02:49:38;;;;;;;56.63;31.35;;;7.20;99.90;;;;;;5012380;28;20026;-75
2022/03/29 02:52:04;;;;;;;51.55;30.60;;;7.30;99.90;;;;;;5012553;28;20112;-74
2022/03/29 02:54:34;;;;;;;49.22;27.98;;;7.20;99.90;;;;;;5012533;28;20472;-74
2022/03/29 02:56:59;;;;;;;46.00;26.42;;;7.30;99.90;;;;;;5012448;28;20044;-73
2022/03/29 02:59:25;;;;;;;50.90;27.85;;;7.30;99.90;;;;;;5012812;28;20018;-74
2022/03/29 03:01:51;;;;;;;48.15;28.42;;;7.30;99.90;;;;;;5011583;28;20032;-74
2022/03/29 03:04:17;;;;;;;51.92;28.88;;;7.40;99.90;;;;;;5012759;28;20026;-74
2022/03/29 03:06:43;;;;;;;53.90;29.40;;;7.40;99.90;;;;;;5012392;28;20026;-74
2022/03/29 03:09:09;;;;;;;51.95;30.88;;;7.30;99.90;;;;;;5012377;28;20022;-77
2022/03/29 03:11:36;;;;;;;47.58;29.45;;;7.30;99.90;;;;;;5012552;28;20030;-75
2022/03/29 03:14:02;;;;;;;44.65;28.92;;;7.30;99.90;;;;;;5012692;28;20022;-75
2022/03/29 03:16:28;;;;;;;54.70;30.67;;;7.30;99.90;;;;;;5012164;28;20041;-77
2022/03/29 03:18:54;;;;;;;47.47;30.55;;;7.30;99.90;;;;;;5012538;28;20030;-77
2022/03/29 03:21:20;;;;;;;54.28;30.65;;;7.30;99.90;;;;;;5012336;28;20104;-75
2022/03/29 03:23:51;;;;;;;60.67;33.40;;;7.30;99.90;;;;;;5011738;28;20177;-74
2022/03/29 03:26:17;;;;;;;58.00;36.17;;;7.30;99.90;;;;;;5027608;28;20045;-75
2022/03/29 03:28:51;;;;;;;107.75;61.33;;;7.20;99.90;;;;;;5012212;28;20022;-75
2022/03/29 03:31:20;;;;;;;109.60;61.10;;;7.20;99.90;;;;;;5027117;28;20045;-76
2022/03/29 03:33:46;;;;;;;96.00;59.20;;;7.30;99.90;;;;;;5027569;28;20026;-76
2022/03/29 03:36:12;;;;;;;138.60;80.88;;;7.30;99.90;;;;;;5012951;28;20400;-76
2022/03/29 03:38:40;;;;;;;134.65;75.80;;;7.30;99.90;;;;;;5012062;28;20520;-76
2022/03/29 03:41:06;;;;;;;121.80;72.20;;;7.30;99.90;;;;;;5012433;28;20065;-76
2022/03/29 03:43:31;;;;;;;99.88;58.22;;;7.30;99.90;;;;;;5011970;28;20451;-76
2022/03/29 03:45:57;;;;;;;78.35;46.08;;;7.30;99.90;;;;;;5012286;28;20057;-76
2022/03/29 03:48:24;;;;;;;58.50;35.30;;;7.30;99.90;;;;;;5012407;28;20034;-75
2022/03/29 03:50:50;;;;;;;54.00;32.30;;;7.30;99.90;;;;;;5011878;28;20038;-75
2022/03/29 03:53:16;;;;;;;52.92;29.42;;;7.30;99.90;;;;;;5011658;28;20575;-75
2022/03/29 03:55:44;;;;;;;55.75;33.10;;;7.20;99.90;;;;;;5012144;28;20033;-75
2022/03/29 03:58:09;;;;;;;57.38;32.38;;;7.20;99.90;;;;;;5012239;28;20018;-76
2022/03/29 04:00:35;;;;;;;58.67;34.83;;;7.30;99.90;;;;;;5030062;28;20038;-75
2022/03/29 04:03:04;;;;;;;48.53;32.42;;;7.20;99.90;;;;;;5015613;28;20026;-73
2022/03/29 04:05:31;;;;;;;63.95;33.13;;;7.20;99.90;;;;;;5011255;28;20030;-76
2022/03/29 04:08:00;;;;;;;56.70;32.70;;;7.20;99.90;;;;;;5011411;28;20033;-75
2022/03/29 04:10:28;;;;;;;52.47;30.45;;;7.20;99.90;;;;;;5014523;28;20049;-76
2022/03/29 04:12:54;;;;;;;58.05;34.40;;;7.20;99.90;;;;;;5015293;28;20030;-74
2022/03/29 04:15:23;;;;;;;54.85;31.98;;;7.20;99.90;;;;;;5012049;28;20570;-77
2022/03/29 04:17:52;;;;;;;50.08;29.08;;;7.10;99.90;;;;;;4993504;28;20173;-76
2022/03/29 04:20:29;;;;;;;54.53;30.27;;;7.10;99.90;;;;;;4995893;28;20076;-77
2022/03/29 04:22:55;;;;;;;54.92;30.52;;;7.00;99.90;;;;;;5014253;28;20060;-76
2022/03/29 04:25:22;;;;;;;53.50;31.80;;;7.00;99.90;;;;;;5014349;28;20420;-75
2022/03/29 04:27:48;;;;;;;50.00;30.08;;;7.00;99.90;;;;;;5014815;28;20045;-75
2022/03/29 04:30:14;;;;;;;61.55;30.52;;;7.00;99.90;;;;;;5015109;28;20496;-75
2022/03/29 04:32:40;;;;;;;51.78;30.35;;;7.00;99.90;;;;;;5015062;28;20472;-74
2022/03/29 04:35:06;;;;;;;64.68;29.42;;;7.00;99.90;;;;;;5014600;28;20045;-74
2022/03/29 04:37:32;;;;;;;58.95;31.85;;;7.00;99.90;;;;;;5014583;28;20034;-75
2022/03/29 04:39:58;;;;;;;59.15;30.15;;;7.10;99.90;;;;;;5014830;28;20490;-76
2022/03/29 04:42:24;;;;;;;60.92;31.98;;;7.10;99.90;;;;;;5014916;28;20092;-74
2022/03/29 04:44:50;;;;;;;47.90;29.27;;;7.10;99.90;;;;;;5014432;28;20081;-75
2022/03/29 04:47:20;;;;;;;59.85;31.10;;;7.20;99.90;;;;;;5014766;28;20519;-76
2022/03/29 04:49:46;;;;;;;47.33;28.63;;;7.10;99.90;;;;;;5014501;28;20068;-76
2022/03/29 04:52:14;;;;;;;66.45;31.27;;;7.10;99.90;;;;;;5014709;28;20069;-76
2022/03/29 04:54:40;;;;;;;66.53;32.13;;;7.20;99.90;;;;;;5028841;28;20488;-76
2022/03/29 04:57:06;;;;;;;57.00;30.13;;;7.30;99.90;;;;;;5014566;28;20109;-76
2022/03/29 04:59:32;;;;;;;53.95;31.42;;;7.50;99.90;;;;;;5014416;28;20091;-76
2022/03/29 05:02:02;;;;;;;60.45;31.10;;;7.60;99.90;;;;;;5014287;28;20056;-76
2022/03/29 05:04:31;;;;;;;68.90;30.90;;;7.60;99.90;;;;;;5028921;28;20104;-76
2022/03/29 05:06:58;;;;;;;73.47;32.92;;;7.70;99.90;;;;;;5025070;28;20050;-76
2022/03/29 05:09:30;;;;;;;65.82;33.13;;;7.90;99.90;;;;;;5013727;28;20030;-73
2022/03/29 05:11:59;;;;;;;48.38;31.08;;;7.90;99.90;;;;;;5028469;28;20068;-76
2022/03/29 05:14:36;;;;;;;49.78;30.20;;;7.90;99.90;;;;;;5015011;28;20029;-76
2022/03/29 05:17:04;;;;;;;62.08;33.92;;;7.90;99.90;;;;;;5014533;28;20034;-76
2022/03/29 05:19:31;;;;;;;52.92;31.70;;;8.10;99.90;;;;;;5004904;28;20022;-73
2022/03/29 05:22:00;;;;;;;121.15;57.47;;;8.30;99.90;;;;;;5016958;28;20364;-75
2022/03/29 05:24:28;;;;;;;76.78;39.92;;;8.60;99.90;;;;;;5020039;28;20388;-75
2022/03/29 05:27:03;;;;;;;72.30;35.15;;;8.70;99.90;;;;;;5022206;28;20030;-76
2022/03/29 05:29:30;;;;;;;78.13;41.53;;;9.10;99.70;;;;;;4995732;28;20038;-73
2022/03/29 05:31:57;;;;;;;87.28;45.78;;;9.40;99.20;;;;;;5003252;28;20034;-74
2022/03/29 05:34:23;;;;;;;80.75;42.10;;;9.50;98.00;;;;;;5010100;28;20033;-76
2022/03/29 05:36:49;;;;;;;100.07;42.58;;;9.60;97.00;;;;;;5008298;28;20037;-76
2022/03/29 05:39:16;;;;;;;53.05;31.90;;;9.80;96.70;;;;;;4994278;28;20109;-76
2022/03/29 05:41:43;;;;;;;56.72;35.38;;;9.70;96.30;;;;;;4994203;28;20488;-76
2022/03/29 05:44:09;;;;;;;52.90;33.97;;;9.60;97.40;;;;;;4999521;28;20038;-76
2022/03/29 05:49:26;;;;;;;59.30;33.00;;;9.50;98.80;;;;;;4992816;28;20531;-73
2022/03/29 05:51:52;;;;;;;64.05;33.33;;;9.70;99.10;;;;;;5003268;28;20485;-75
2022/03/29 05:54:18;;;;;;;58.88;34.90;;;9.90;99.90;;;;;;5012750;28;20117;-75
2022/03/29 05:56:44;;;;;;;63.40;33.80;;;10.00;98.60;;;;;;5004979;28;20026;-76
2022/03/29 05:59:10;;;;;;;56.80;34.17;;;10.30;99.90;;;;;;4992139;28;20081;-75
2022/03/29 06:01:40;;;;;;;61.38;32.55;;;10.50;99.60;;;;;;5005372;28;20018;-71
2022/03/29 06:04:08;;;;;;;58.67;34.00;;;10.90;98.00;;;;;;5016876;28;20116;-74
2022/03/29 06:06:36;;;;;;;85.82;37.65;;;11.20;97.20;;;;;;5002743;28;20026;-74
2022/03/29 06:09:04;;;;;;;77.97;41.67;;;11.50;97.90;;;;;;5019517;28;20034;-70
2022/03/29 06:11:32;;;;;;;78.45;41.08;;;11.70;96.20;;;;;;5019977;28;20376;-74
2022/03/29 06:13:58;;;;;;;76.00;43.17;;;12.10;97.20;;;;;;5020648;28;20049;-77
2022/03/29 06:16:37;;;;;;;63.75;40.22;;;12.20;93.80;;;;;;5019002;28;20029;-72
2022/03/29 06:19:05;;;;;;;59.60;36.15;;;12.50;92.10;;;;;;4995441;28;20109;-76
2022/03/29 06:21:31;;;;;;;54.53;32.70;;;12.60;93.00;;;;;;5007562;28;20535;-73
2022/03/29 06:23:57;;;;;;;48.33;31.48;;;12.70;90.30;;;;;;4993342;28;20026;-73
2022/03/29 06:26:23;;;;;;;44.28;28.73;;;13.00;87.50;;;;;;5012979;28;20029;-73
2022/03/29 06:28:49;;;;;;;46.17;29.17;;;13.20;85.80;;;;;;5012241;28;20465;-73
2022/03/29 06:31:14;;;;;;;43.83;27.23;;;13.40;84.90;;;;;;5009277;28;20052;-73
2022/03/29 06:33:41;;;;;;;46.22;26.77;;;13.70;83.10;;;;;;5011471;28;20048;-72
2022/03/29 06:36:06;;;;;;;41.17;25.15;;;13.70;82.90;;;;;;5026746;28;20030;-73
2022/03/29 06:38:32;;;;;;;48.45;25.80;;;13.90;81.30;;;;;;5000466;28;20534;-74
2022/03/29 06:40:59;;;;;;;49.38;28.00;;;14.00;80.70;;;;;;5011977;28;20029;-74
2022/03/29 06:43:25;;;;;;;47.15;26.80;;;14.00;79.70;;;;;;5010116;28;20065;-74
2022/03/29 06:45:51;;;;;;;49.13;27.33;;;14.10;80.10;;;;;;5012485;28;20046;-77
2022/03/29 06:48:17;;;;;;;41.90;27.08;;;14.20;79.20;;;;;;5011813;28;20480;-72
2022/03/29 06:50:46;;;;;;;44.97;27.98;;;14.30;79.20;;;;;;4998295;28;20393;-74
2022/03/29 06:53:12;;;;;;;46.30;29.33;;;14.40;78.40;;;;;;5006502;28;20129;-75
2022/03/29 06:55:38;;;;;;;53.47;27.75;;;14.40;78.30;;;;;;5009290;28;20121;-74
2022/03/29 06:58:04;;;;;;;43.63;29.48;;;14.50;78.50;;;;;;5012226;28;20052;-75
2022/03/29 07:00:30;;;;;;;55.53;29.38;;;14.70;77.80;;;;;;5022371;28;20045;-75
2022/03/29 07:02:58;;;;;;;43.42;28.48;;;14.80;77.30;;;;;;5007136;28;20049;-75
2022/03/29 07:05:24;;;;;;;44.88;29.65;;;14.80;77.60;;;;;;4997712;28;20022;-75
2022/03/29 07:07:50;;;;;;;51.67;31.10;;;14.80;77.50;;;;;;5012125;28;20034;-75
2022/03/29 07:13:02;;;;;;;54.15;31.30;;;14.90;80.70;;;;;;5011493;28;20025;-75
2022/03/29 07:15:29;;;;;;;47.35;31.88;;;15.10;78.30;;;;;;5010410;28;20034;-72
2022/03/29 07:17:55;;;;;;;54.30;31.30;;;15.40;78.50;;;;;;5000198;28;20385;-69
2022/03/29 07:20:22;;;;;;;48.55;30.75;;;15.60;79.50;;;;;;4999048;28;20093;-73
2022/03/29 07:22:50;;;;;;;49.92;31.10;;;15.80;77.10;;;;;;5003569;28;20034;-75
2022/03/29 07:25:20;;;;;;;41.03;28.23;;;15.90;76.70;;;;;;5000699;28;20034;-71
2022/03/29 07:27:49;;;;;;;44.33;29.15;;;16.00;77.00;;;;;;4994018;28;20045;-75
2022/03/29 07:30:15;;;;;;;39.50;26.00;;;16.10;78.30;;;;;;4992830;28;20093;-73
2022/03/29 07:32:45;;;;;;;43.13;26.15;;;16.50;75.30;;;;;;5001122;28;20026;-75
2022/03/29 07:35:14;;;;;;;45.97;28.23;;;16.60;75.00;;;;;;4995827;28;20044;-75
2022/03/29 07:37:40;;;;;;;40.60;26.05;;;16.80;74.40;;;;;;5003007;28;20018;-74
2022/03/29 07:40:16;;;;;;;40.03;25.67;;;16.80;72.90;;;;;;5015989;28;20088;-75
2022/03/29 07:42:44;;;;;;;38.70;25.77;;;16.90;75.10;;;;;;5003855;28;20057;-75
2022/03/29 07:45:15;;;;;;;37.15;26.20;;;17.00;71.30;;;;;;5002122;28;20049;-76
2022/03/29 07:47:41;;;;;;;40.90;26.40;;;17.30;73.50;;;;;;5015929;28;20022;-76
2022/03/29 07:50:09;;;;;;;42.03;24.17;;;17.40;71.50;;;;;;4998690;28;20049;-76
2022/03/29 07:52:36;;;;;;;38.13;24.75;;;17.50;71.70;;;;;;5027893;28;20076;-75
2022/03/29 07:55:12;;;;;;;36.13;23.70;;;17.80;69.50;;;;;;5029172;28;20113;-74
2022/03/29 07:57:39;;;;;;;32.97;24.58;;;18.00;68.50;;;;;;4997334;28;20030;-75
2022/03/29 08:03:12;;;;;;;41.38;22.30;;;18.60;70.70;;;;;;5013267;28;20420;-76
2022/03/29 08:05:41;;;;;;;33.10;23.10;;;18.60;67.40;;;;;;5013715;28;20050;-76
2022/03/29 08:08:13;;;;;;;34.13;20.92;;;18.80;66.50;;;;;;5013206;28;20105;-75
2022/03/29 08:10:39;;;;;;;29.25;20.83;;;18.70;64.00;;;;;;5021097;28;20062;-75
2022/03/29 08:13:30;;;;;;;32.65;21.33;;;18.90;64.70;;;;;;5052363;28;20480;-76
2022/03/29 08:15:58;;;;;;;30.25;21.02;;;19.20;64.30;;;;;;5035529;28;20051;-76
2022/03/29 08:18:27;;;;;;;32.53;20.95;;;19.20;62.70;;;;;;5018676;28;20040;-76
2022/03/29 08:20:53;;;;;;;29.00;19.75;;;19.40;63.50;;;;;;5016988;28;20037;-75
2022/03/29 08:23:21;;;;;;;29.10;19.15;;;19.50;61.70;;;;;;5022466;28;20037;-75
2022/03/29 08:25:47;;;;;;;26.52;17.95;;;19.70;60.10;;;;;;5031938;28;20108;-75
2022/03/29 08:28:14;;;;;;;27.77;18.33;;;19.80;58.70;;;;;;5032099;28;20026;-75
2022/03/29 08:30:42;;;;;;;27.52;17.58;;;19.90;58.10;;;;;;5032354;28;20107;-74
2022/03/29 08:33:11;;;;;;;32.83;19.15;;;19.80;58.30;;;;;;5016144;28;20030;-75
2022/03/29 08:35:38;;;;;;;42.83;18.38;;;19.80;57.00;;;;;;5032691;28;20033;-74
2022/03/29 08:38:05;;;;;;;26.80;18.08;;;19.70;56.80;;;;;;5016842;28;20100;-74
2022/03/29 08:40:32;;;;;;;27.90;18.33;;;19.60;55.80;;;;;;5014353;28;20049;-72
2022/03/29 08:43:00;;;;;;;27.23;17.60;;;19.80;55.10;;;;;;5014493;28;20049;-74
2022/03/29 08:45:30;;;;;;;26.52;16.55;;;20.00;54.80;;;;;;4997534;28;20042;-74
2022/03/29 08:47:59;;;;;;;25.63;18.35;;;20.00;52.60;;;;;;5014945;28;20033;-74
2022/03/29 08:50:31;;;;;;;29.77;18.13;;;20.20;55.40;;;;;;5014600;28;20521;-74
2022/03/29 08:53:01;;;;;;;26.40;17.92;;;20.30;54.40;;;;;;5012739;28;20369;-74
2022/03/29 08:55:27;;;;;;;32.42;17.33;;;20.30;55.30;;;;;;4997599;28;20048;-74
2022/03/29 08:57:55;;;;;;;26.63;17.83;;;20.40;54.10;;;;;;5013394;28;20037;-74
2022/03/29 09:00:23;;;;;;;27.63;16.85;;;20.40;53.70;;;;;;5013021;28;20048;-74
2022/03/29 09:02:50;;;;;;;25.83;17.33;;;20.10;50.00;;;;;;5013180;28;20030;-75
2022/03/29 09:05:21;;;;;;;23.33;15.88;;;20.40;53.20;;;;;;4997054;28;20045;-74
2022/03/29 09:07:54;;;;;;;25.88;16.13;;;20.40;52.40;;;;;;5014273;28;20033;-73
2022/03/29 09:10:23;;;;;;;27.17;17.90;;;20.50;51.70;;;;;;5013897;28;20120;-74
2022/03/29 09:12:49;;;;;;;29.27;18.13;;;20.70;54.00;;;;;;5013682;28;20022;-70
2022/03/29 09:15:16;;;;;;;26.42;16.08;;;20.80;53.00;;;;;;5014099;28;20531;-70
2022/03/29 09:17:48;;;;;;;28.73;16.70;;;20.90;51.20;;;;;;5012804;28;20037;-74
2022/03/29 09:20:21;;;;;;;28.77;17.45;;;20.70;50.70;;;;;;5012588;28;20026;-74
2022/03/29 09:22:55;;;;;;;30.23;17.55;;;20.80;50.30;;;;;;5013853;28;20022;-74
2022/03/29 09:25:21;;;;;;;24.42;17.17;;;20.90;50.40;;;;;;5012617;28;20033;-74
2022/03/29 09:28:10;;;;;;;31.70;16.52;;;20.90;51.90;;;;;;5013052;28;20476;-73
2022/03/29 09:30:44;;;;;;;29.15;17.20;;;21.10;51.20;;;;;;5012982;28;20093;-74
2022/03/29 09:33:27;;;;;;;27.80;16.52;;;21.30;52.30;;;;;;5013609;28;20487;-74
2022/03/29 09:35:58;;;;;;;24.52;17.10;;;21.10;49.50;;;;;;5029212;28;20087;-74
2022/03/29 09:38:36;;;;;;;29.33;17.65;;;21.00;49.40;;;;;;5010263;28;20079;-73
2022/03/29 09:41:04;;;;;;;28.15;17.75;;;21.00;50.70;;;;;;5008365;28;20033;-73
2022/03/29 09:44:06;;;;;;;33.70;18.30;;;20.90;52.10;;;;;;4986747;28;20073;-72
2022/03/29 09:46:54;;;;;;;27.23;17.92;;;21.00;52.00;;;;;;4972819;28;20042;-73
2022/03/29 09:49:20;;;;;;;30.10;17.00;;;21.00;52.80;;;;;;4991540;28;20096;-71
2022/03/29 09:51:47;;;;;;;32.67;17.52;;;21.00;50.70;;;;;;4991178;28;20042;-73
2022/03/29 09:54:15;;;;;;;23.05;16.27;;;21.00;52.30;;;;;;4991199;28;20447;-74
2022/03/29 09:56:50;;;;;;;27.02;18.10;;;21.30;52.40;;;;;;4973973;28;20431;-75
2022/03/29 09:59:19;;;;;;;30.13;17.50;;;21.40;51.40;;;;;;4971473;28;20384;-74
2022/03/29 10:01:57;;;;;;;29.67;18.75;;;21.30;51.20;;;;;;4988192;28;20042;-72
2022/03/29 10:04:29;;;;;;;26.50;17.40;;;21.40;51.30;;;;;;4975229;28;20495;-75
2022/03/29 10:06:58;;;;;;;27.58;17.48;;;21.30;52.00;;;;;;4991871;28;20042;-76
2022/03/29 10:09:30;;;;;;;35.70;18.55;;;21.50;53.30;;;;;;4991344;28;20117;-75
2022/03/29 10:12:08;;;;;;;27.70;17.92;;;21.60;52.00;;;;;;4989958;28;20041;-76
2022/03/29 10:14:43;;;;;;;27.23;17.90;;;21.60;51.20;;;;;;4991260;28;20112;-75
2022/03/29 10:17:17;;;;;;;28.33;19.55;;;21.70;52.00;;;;;;4974936;28;20548;-76
2022/03/29 10:19:47;;;;;;;31.70;18.73;;;21.80;52.40;;;;;;4976128;28;20045;-75
2022/03/29 10:22:13;;;;;;;28.77;18.42;;;21.90;51.40;;;;;;5012520;28;20021;-75
2022/03/29 10:24:39;;;;;;;30.70;18.88;;;21.90;50.50;;;;;;5012694;28;20026;-75
2022/03/29 10:27:07;;;;;;;25.50;17.42;;;22.00;52.00;;;;;;5011819;28;20044;-76
2022/03/29 10:29:34;;;;;;;27.48;18.33;;;22.00;50.80;;;;;;5011142;28;20117;-75
2022/03/29 10:32:07;;;;;;;29.35;19.40;;;21.80;51.50;;;;;;5010247;28;20561;-76
2022/03/29 10:34:44;;;;;;;37.15;19.20;;;21.80;50.30;;;;;;5010296;28;20018;-76
2022/03/29 10:37:18;;;;;;;24.35;16.73;;;21.60;49.70;;;;;;5027191;28;20026;-76
2022/03/29 10:39:56;;;;;;;35.83;19.50;;;21.70;49.50;;;;;;5011694;28;20036;-75
2022/03/29 10:42:44;;;;;;;28.35;19.00;;;21.60;50.60;;;;;;5011563;28;20550;-76
2022/03/29 10:45:19;;;;;;;27.15;18.15;;;21.50;48.70;;;;;;5011098;28;20053;-75
2022/03/29 10:47:59;;;;;;;24.92;19.38;;;21.60;51.50;;;;;;5011567;28;20030;-74
2022/03/29 10:50:46;;;;;;;29.15;20.05;;;21.80;52.40;;;;;;5011831;28;20033;-76
2022/03/29 10:53:25;;;;;;;30.25;19.02;;;21.70;50.60;;;;;;5011417;28;20048;-76
2022/03/29 10:56:15;;;;;;;28.60;18.15;;;21.50;48.80;;;;;;5010091;28;20041;-76
2022/03/29 10:59:09;;;;;;;43.90;20.02;;;21.60;50.80;;;;;;5012820;28;20033;-76
2022/03/29 11:01:37;;;;;;;30.55;19.88;;;21.80;50.70;;;;;;5027804;28;20491;-75
2022/03/29 11:04:17;;;;;;;28.65;19.40;;;21.80;51.80;;;;;;5026063;28;20048;-76
2022/03/29 11:07:06;;;;;;;33.15;19.13;;;22.00;52.60;;;;;;5028884;28;20037;-76
2022/03/29 11:09:34;;;;;;;28.38;18.75;;;22.00;48.80;;;;;;5017452;28;20053;-76
2022/03/29 11:12:00;;;;;;;28.67;18.58;;;21.90;50.30;;;;;;5032476;28;20159;-75
2022/03/29 11:14:33;;;;;;;29.23;18.90;;;22.00;48.80;;;;;;5032954;28;20033;-76
2022/03/29 11:17:09;;;;;;;31.15;19.38;;;22.10;51.90;;;;;;5000205;28;20616;-74
2022/03/29 11:19:48;;;;;;;27.10;18.83;;;22.00;51.10;;;;;;5032710;28;20034;-75
2022/03/29 11:22:34;;;;;;;29.80;19.27;;;22.30;52.30;;;;;;5015441;28;20038;-74
2022/03/29 11:25:05;;;;;;;30.42;19.10;;;22.40;50.30;;;;;;5032067;28;20032;-76
2022/03/29 11:27:34;;;;;;;27.92;18.65;;;22.30;50.90;;;;;;5015285;28;20025;-75
2022/03/29 11:30:05;;;;;;;32.25;17.48;;;22.40;49.70;;;;;;5035477;28;20490;-73
2022/03/29 11:32:34;;;;;;;26.85;17.83;;;22.40;50.00;;;;;;5031374;28;20046;-76
2022/03/29 11:35:02;;;;;;;25.77;17.75;;;22.50;47.90;;;;;;5028746;28;20033;-74
2022/03/29 11:37:40;;;;;;;25.80;18.23;;;22.20;49.10;;;;;;5014675;28;20030;-76
2022/03/29 11:40:15;;;;;;;29.60;18.13;;;22.40;50.00;;;;;;5014551;28;20036;-75
2022/03/29 11:42:55;;;;;;;27.92;18.50;;;22.40;49.30;;;;;;5012766;28;20057;-75
2022/03/29 11:45:31;;;;;;;33.13;17.90;;;22.50;47.30;;;;;;5013446;28;20525;-76
2022/03/29 11:48:07;;;;;;;26.65;18.90;;;22.30;46.70;;;;;;5025282;28;20040;-76
2022/03/29 11:50:40;;;;;;;27.45;18.05;;;22.40;50.00;;;;;;5015876;28;20036;-76
2022/03/29 11:53:20;;;;;;;35.50;18.73;;;22.50;49.00;;;;;;5014356;28;20032;-75
2022/03/29 11:55:56;;;;;;;25.58;17.35;;;22.50;48.90;;;;;;5014144;28;20080;-75
2022/03/29 11:58:22;;;;;;;24.85;18.05;;;22.60;47.60;;;;;;5014207;28;20472;-76
2022/03/29 12:00:48;;;;;;;31.25;18.27;;;22.60;48.70;;;;;;5014643;28;20361;-75
2022/03/29 12:03:26;;;;;;;27.70;17.08;;;22.50;49.30;;;;;;5014243;28;20040;-76
2022/03/29 12:06:04;;;;;;;31.30;18.30;;;22.50;49.60;;;;;;5014458;28;20030;-74
2022/03/29 12:08:43;;;;;;;27.92;17.48;;;22.40;49.10;;;;;;5012633;28;20025;-76
2022/03/29 12:11:09;;;;;;;29.17;17.35;;;22.50;46.90;;;;;;5012275;28;20096;-76
2022/03/29 12:13:37;;;;;;;29.20;18.73;;;22.50;45.30;;;;;;5029098;28;20079;-73
2022/03/29 12:16:15;;;;;;;29.75;18.20;;;22.50;46.70;;;;;;5013874;28;20037;-76
2022/03/29 12:18:41;;;;;;;26.45;18.02;;;22.50;46.70;;;;;;5014789;28;20037;-77
2022/03/29 12:21:15;;;;;;;28.30;17.70;;;22.60;47.60;;;;;;5013072;28;20357;-74
2022/03/29 12:23:42;;;;;;;29.50;17.75;;;22.70;46.50;;;;;;5013934;28;20017;-76
2022/03/29 12:26:16;;;;;;;33.38;18.83;;;22.80;47.90;;;;;;5012421;28;20049;-76
2022/03/29 12:28:45;;;;;;;28.00;19.00;;;22.90;47.10;;;;;;5013779;28;20022;-75
2022/03/29 12:31:17;;;;;;;29.23;18.58;;;22.90;46.70;;;;;;4995820;28;20099;-76
2022/03/29 12:33:44;;;;;;;28.33;17.02;;;23.00;48.20;;;;;;5013234;28;20073;-76
2022/03/29 12:36:15;;;;;;;29.67;18.95;;;22.90;46.10;;;;;;5013785;28;20033;-75
2022/03/29 12:38:49;;;;;;;27.95;17.50;;;23.00;45.70;;;;;;5013558;28;20034;-77
2022/03/29 12:41:46;;;;;;;30.25;17.05;;;23.00;45.40;;;;;;5013570;28;20476;-76
2022/03/29 12:44:36;;;;;;;31.38;18.15;;;22.90;47.30;;;;;;5012361;28;20030;-73
2022/03/29 12:47:04;;;;;;;26.52;17.48;;;22.80;45.20;;;;;;5015448;28;20033;-76
2022/03/29 12:49:31;;;;;;;31.63;19.38;;;22.80;46.30;;;;;;5013463;28;20030;-77
2022/03/29 12:52:05;;;;;;;27.52;18.33;;;22.80;45.40;;;;;;5012641;28;20080;-76